sensor_id;sensor_type;location;lat;lon;timestamp;temperature;humidity
2112;DHT22;1062;52.538;13.400;2023-04-24T00:01:29;12.00;99.90
2112;DHT22;1062;52.538;13.400;2023-04-24T00:03:55;12.00;99.90
2112;DHT22;1062;52.538;13.400;2023-04-24T00:06:25;12.00;99.90
2112;DHT22;1062;52.538;13.400;2023-04-24T00:09:02;12.00;99.90
2112;DHT22;1062;52.538;13.400;2023-04-24T00:11:28;12.00;99.90
2112;DHT22;1062;52.538;13.400;2023-04-24T00:13:53;11.90;99.90
2112;DHT22;1062;52.538;13.400;2023-04-24T00:16:19;11.90;99.90
2112;DHT22;1062;52.538;13.400;2023-04-24T00:18:45;11.90;99.90
2112;DHT22;1062;52.538;13.400;2023-04-24T00:21:11;11.90;99.90
2112;DHT22;1062;52.538;13.400;2023-04-24T00:23:36;11.90;99.90
2112;DHT22;1062;52.538;13.400;2023-04-24T00:26:02;11.80;99.90
2112;DHT22;1062;52.538;13.400;2023-04-24T00:28:28;11.80;99.90
2112;DHT22;1062;52.538;13.400;2023-04-24T00:30:54;11.80;99.90
2112;DHT22;1062;52.538;13.400;2023-04-24T00:33:19;11.80;99.90
2112;DHT22;1062;52.538;13.400;2023-04-24T00:35:45;11.80;99.90
2112;DHT22;1062;52.538;13.400;2023-04-24T00:38:11;11.80;99.90
2112;DHT22;1062;52.538;13.400;2023-04-24T00:40:36;11.80;99.90
2112;DHT22;1062;52.538;13.400;2023-04-24T00:43:02;11.80;99.90
2112;DHT22;1062;52.538;13.400;2023-04-24T00:45:28;11.80;99.90
2112;DHT22;1062;52.538;13.400;2023-04-24T00:47:53;11.80;99.90
2112;DHT22;1062;52.538;13.400;2023-04-24T00:50:21;11.80;99.90
2112;DHT22;1062;52.538;13.400;2023-04-24T00:52:46;11.70;99.90
2112;DHT22;1062;52.538;13.400;2023-04-24T00:55:12;11.70;99.90
2112;DHT22;1062;52.538;13.400;2023-04-24T00:57:38;11.70;99.90
2112;DHT22;1062;52.538;13.400;2023-04-24T01:00:05;11.70;99.90
2112;DHT22;1062;52.538;13.400;2023-04-24T01:02:33;11.70;99.90
2112;DHT22;1062;52.538;13.400;2023-04-24T01:05:00;11.70;99.90
2112;DHT22;1062;52.538;13.400;2023-04-24T01:07:27;11.70;99.90
2112;DHT22;1062;52.538;13.400;2023-04-24T01:09:52;11.70;99.90
2112;DHT22;1062;52.538;13.400;2023-04-24T01:12:19;11.70;99.90
2112;DHT22;1062;52.538;13.400;2023-04-24T01:14:45;11.60;99.90
2112;DHT22;1062;52.538;13.400;2023-04-24T01:17:10;11.70;99.90
2112;DHT22;1062;52.538;13.400;2023-04-24T01:19:37;11.70;99.90
2112;DHT22;1062;52.538;13.400;2023-04-24T01:22:08;11.70;99.90
2112;DHT22;1062;52.538;13.400;2023-04-24T01:24:34;11.70;99.90
2112;DHT22;1062;52.538;13.400;2023-04-24T01:26:59;11.70;99.90
2112;DHT22;1062;52.538;13.400;2023-04-24T01:29:26;11.70;99.90
2112;DHT22;1062;52.538;13.400;2023-04-24T01:31:52;11.60;99.90
2112;DHT22;1062;52.538;13.400;2023-04-24T01:34:17;11.60;99.90
2112;DHT22;1062;52.538;13.400;2023-04-24T01:36:45;11.60;99.90
2112;DHT22;1062;52.538;13.400;2023-04-24T01:39:12;11.60;99.90
2112;DHT22;1062;52.538;13.400;2023-04-24T01:41:37;11.60;99.90
2112;DHT22;1062;52.538;13.400;2023-04-24T01:44:03;11.60;99.90
2112;DHT22;1062;52.538;13.400;2023-04-24T01:46:29;11.70;99.90
2112;DHT22;1062;52.538;13.400;2023-04-24T01:48:58;11.70;99.90
2112;DHT22;1062;52.538;13.400;2023-04-24T01:51:25;11.80;99.90
2112;DHT22;1062;52.538;13.400;2023-04-24T01:53:50;11.80;99.90
2112;DHT22;1062;52.538;13.400;2023-04-24T01:56:16;11.80;99.90
2112;DHT22;1062;52.538;13.400;2023-04-24T01:58:43;11.80;99.90
2112;DHT22;1062;52.538;13.400;2023-04-24T02:01:08;11.80;99.90
2112;DHT22;1062;52.538;13.400;2023-04-24T02:03:34;11.80;99.90
2112;DHT22;1062;52.538;13.400;2023-04-24T02:06:00;11.80;99.90
2112;DHT22;1062;52.538;13.400;2023-04-24T02:08:25;11.80;99.90
2112;DHT22;1062;52.538;13.400;2023-04-24T02:10:51;11.80;99.90
2112;DHT22;1062;52.538;13.400;2023-04-24T02:13:17;11.70;99.90
2112;DHT22;1062;52.538;13.400;2023-04-24T02:15:42;11.80;99.90
2112;DHT22;1062;52.538;13.400;2023-04-24T02:18:08;11.70;99.90
2112;DHT22;1062;52.538;13.400;2023-04-24T02:20:33;11.70;99.90
2112;DHT22;1062;52.538;13.400;2023-04-24T02:23:01;11.70;99.90
2112;DHT22;1062;52.538;13.400;2023-04-24T02:25:26;11.70;99.90
2112;DHT22;1062;52.538;13.400;2023-04-24T02:27:52;11.70;99.90
2112;DHT22;1062;52.538;13.400;2023-04-24T02:30:17;11.70;99.90
2112;DHT22;1062;52.538;13.400;2023-04-24T02:32:43;11.70;99.90
2112;DHT22;1062;52.538;13.400;2023-04-24T02:35:09;11.70;99.90
2112;DHT22;1062;52.538;13.400;2023-04-24T02:37:34;11.60;99.90
2112;DHT22;1062;52.538;13.400;2023-04-24T02:40:00;11.70;99.90
2112;DHT22;1062;52.538;13.400;2023-04-24T02:42:26;11.70;99.90
2112;DHT22;1062;52.538;13.400;2023-04-24T02:44:51;11.70;99.90
2112;DHT22;1062;52.538;13.400;2023-04-24T02:47:17;11.70;99.90
2112;DHT22;1062;52.538;13.400;2023-04-24T02:49:42;11.70;99.90
2112;DHT22;1062;52.538;13.400;2023-04-24T02:52:08;11.70;99.90
2112;DHT22;1062;52.538;13.400;2023-04-24T02:54:34;11.70;99.90
2112;DHT22;1062;52.538;13.400;2023-04-24T02:56:59;11.80;99.90
2112;DHT22;1062;52.538;13.400;2023-04-24T02:59:26;11.80;99.90
2112;DHT22;1062;52.538;13.400;2023-04-24T03:01:54;11.80;99.90
2112;DHT22;1062;52.538;13.400;2023-04-24T03:04:19;11.80;99.90
2112;DHT22;1062;52.538;13.400;2023-04-24T03:06:45;11.80;99.90
2112;DHT22;1062;52.538;13.400;2023-04-24T03:09:11;11.80;99.90
2112;DHT22;1062;52.538;13.400;2023-04-24T03:11:36;11.80;99.90
2112;DHT22;1062;52.538;13.400;2023-04-24T03:14:02;11.80;99.90
2112;DHT22;1062;52.538;13.400;2023-04-24T03:16:28;11.90;99.90
2112;DHT22;1062;52.538;13.400;2023-04-24T03:18:53;11.90;99.90
2112;DHT22;1062;52.538;13.400;2023-04-24T03:21:19;11.90;99.90
2112;DHT22;1062;52.538;13.400;2023-04-24T03:23:45;11.90;99.90
2112;DHT22;1062;52.538;13.400;2023-04-24T03:26:10;11.90;99.90
2112;DHT22;1062;52.538;13.400;2023-04-24T03:28:36;11.90;99.90
2112;DHT22;1062;52.538;13.400;2023-04-24T03:31:03;12.00;99.90
2112;DHT22;1062;52.538;13.400;2023-04-24T03:33:28;12.00;99.90
2112;DHT22;1062;52.538;13.400;2023-04-24T03:35:54;12.00;99.90
2112;DHT22;1062;52.538;13.400;2023-04-24T03:38:20;12.00;99.90
2112;DHT22;1062;52.538;13.400;2023-04-24T03:40:45;12.00;99.90
2112;DHT22;1062;52.538;13.400;2023-04-24T03:43:11;12.00;99.90
2112;DHT22;1062;52.538;13.400;2023-04-24T03:45:37;12.00;99.90
2112;DHT22;1062;52.538;13.400;2023-04-24T03:48:02;12.00;99.90
2112;DHT22;1062;52.538;13.400;2023-04-24T03:50:28;12.00;99.90
2112;DHT22;1062;52.538;13.400;2023-04-24T03:52:54;12.00;99.90
2112;DHT22;1062;52.538;13.400;2023-04-24T03:55:20;12.00;99.90
2112;DHT22;1062;52.538;13.400;2023-04-24T03:57:45;12.00;99.90
2112;DHT22;1062;52.538;13.400;2023-04-24T04:00:11;12.00;99.90
2112;DHT22;1062;52.538;13.400;2023-04-24T04:02:37;12.00;99.90
2112;DHT22;1062;52.538;13.400;2023-04-24T04:05:03;12.10;99.90
2112;DHT22;1062;52.538;13.400;2023-04-24T04:07:29;12.10;99.90
2112;DHT22;1062;52.538;13.400;2023-04-24T04:09:55;12.10;99.90
2112;DHT22;1062;52.538;13.400;2023-04-24T04:12:20;12.10;99.90
2112;DHT22;1062;52.538;13.400;2023-04-24T04:14:46;12.10;99.90
2112;DHT22;1062;52.538;13.400;2023-04-24T04:17:12;12.10;99.90
2112;DHT22;1062;52.538;13.400;2023-04-24T04:19:37;12.10;99.90
2112;DHT22;1062;52.538;13.400;2023-04-24T04:22:03;12.20;99.90
2112;DHT22;1062;52.538;13.400;2023-04-24T04:24:28;12.20;99.90
2112;DHT22;1062;52.538;13.400;2023-04-24T04:26:54;12.20;99.90
2112;DHT22;1062;52.538;13.400;2023-04-24T04:29:23;12.20;99.90
2112;DHT22;1062;52.538;13.400;2023-04-24T04:31:49;12.20;99.90
2112;DHT22;1062;52.538;13.400;2023-04-24T04:34:15;12.20;99.90
2112;DHT22;1062;52.538;13.400;2023-04-24T04:36:41;12.20;99.90
2112;DHT22;1062;52.538;13.400;2023-04-24T04:39:07;12.30;99.90
2112;DHT22;1062;52.538;13.400;2023-04-24T04:41:33;12.20;99.90
2112;DHT22;1062;52.538;13.400;2023-04-24T04:44:00;12.30;99.90
2112;DHT22;1062;52.538;13.400;2023-04-24T04:46:26;12.30;99.90
2112;DHT22;1062;52.538;13.400;2023-04-24T04:48:53;12.30;99.90
2112;DHT22;1062;52.538;13.400;2023-04-24T04:51:19;12.30;99.90
2112;DHT22;1062;52.538;13.400;2023-04-24T04:53:45;12.30;99.90
2112;DHT22;1062;52.538;13.400;2023-04-24T04:56:11;12.30;99.90
2112;DHT22;1062;52.538;13.400;2023-04-24T04:58:36;12.40;99.90
2112;DHT22;1062;52.538;13.400;2023-04-24T05:01:02;12.40;99.90
2112;DHT22;1062;52.538;13.400;2023-04-24T05:03:27;12.40;99.90
2112;DHT22;1062;52.538;13.400;2023-04-24T05:05:53;12.50;99.90
2112;DHT22;1062;52.538;13.400;2023-04-24T05:08:19;12.50;99.90
2112;DHT22;1062;52.538;13.400;2023-04-24T05:10:45;12.50;99.90
2112;DHT22;1062;52.538;13.400;2023-04-24T05:13:10;12.60;99.90
2112;DHT22;1062;52.538;13.400;2023-04-24T05:15:36;12.60;99.90
2112;DHT22;1062;52.538;13.400;2023-04-24T05:18:01;12.70;99.90
2112;DHT22;1062;52.538;13.400;2023-04-24T05:20:28;12.70;99.90
2112;DHT22;1062;52.538;13.400;2023-04-24T05:22:54;12.70;99.90
2112;DHT22;1062;52.538;13.400;2023-04-24T05:25:19;12.80;99.90
2112;DHT22;1062;52.538;13.400;2023-04-24T05:27:45;12.80;99.90
2112;DHT22;1062;52.538;13.400;2023-04-24T05:30:11;12.80;99.90
2112;DHT22;1062;52.538;13.400;2023-04-24T05:32:37;13.10;99.90
2112;DHT22;1062;52.538;13.400;2023-04-24T05:35:03;13.30;99.90
2112;DHT22;1062;52.538;13.400;2023-04-24T05:37:32;13.60;99.90
2112;DHT22;1062;52.538;13.400;2023-04-24T05:39:58;13.70;99.90
2112;DHT22;1062;52.538;13.400;2023-04-24T05:42:23;13.70;99.90
2112;DHT22;1062;52.538;13.400;2023-04-24T05:44:50;13.80;99.90
2112;DHT22;1062;52.538;13.400;2023-04-24T05:47:16;13.90;99.90
2112;DHT22;1062;52.538;13.400;2023-04-24T05:49:41;14.10;99.90
2112;DHT22;1062;52.538;13.400;2023-04-24T05:52:07;14.00;99.90
2112;DHT22;1062;52.538;13.400;2023-04-24T05:54:34;14.00;99.90
2112;DHT22;1062;52.538;13.400;2023-04-24T05:57:00;14.10;99.90
2112;DHT22;1062;52.538;13.400;2023-04-24T05:59:29;14.20;99.90
2112;DHT22;1062;52.538;13.400;2023-04-24T06:01:55;14.40;99.90
2112;DHT22;1062;52.538;13.400;2023-04-24T06:04:20;14.70;99.90
2112;DHT22;1062;52.538;13.400;2023-04-24T06:06:46;15.00;99.90
2112;DHT22;1062;52.538;13.400;2023-04-24T06:09:16;15.20;99.90
2112;DHT22;1062;52.538;13.400;2023-04-24T06:11:42;15.30;99.90
2112;DHT22;1062;52.538;13.400;2023-04-24T06:14:07;15.70;99.90
2112;DHT22;1062;52.538;13.400;2023-04-24T06:16:33;15.90;99.90
2112;DHT22;1062;52.538;13.400;2023-04-24T06:18:59;16.10;99.90
2112;DHT22;1062;52.538;13.400;2023-04-24T06:21:24;16.30;99.90
2112;DHT22;1062;52.538;13.400;2023-04-24T06:23:51;16.10;99.90
2112;DHT22;1062;52.538;13.400;2023-04-24T06:26:16;15.90;99.90
2112;DHT22;1062;52.538;13.400;2023-04-24T06:28:42;15.50;99.90
2112;DHT22;1062;52.538;13.400;2023-04-24T06:31:07;15.40;99.90
2112;DHT22;1062;52.538;13.400;2023-04-24T06:33:33;15.50;99.90
2112;DHT22;1062;52.538;13.400;2023-04-24T06:35:59;15.90;99.90
2112;DHT22;1062;52.538;13.400;2023-04-24T06:38:24;16.00;99.90
2112;DHT22;1062;52.538;13.400;2023-04-24T06:40:50;17.00;99.90
2112;DHT22;1062;52.538;13.400;2023-04-24T06:43:16;17.70;99.90
2112;DHT22;1062;52.538;13.400;2023-04-24T06:45:42;18.50;99.90
2112;DHT22;1062;52.538;13.400;2023-04-24T06:48:09;18.80;99.90
2112;DHT22;1062;52.538;13.400;2023-04-24T06:50:35;18.70;99.90
2112;DHT22;1062;52.538;13.400;2023-04-24T06:53:00;19.00;99.90
2112;DHT22;1062;52.538;13.400;2023-04-24T06:55:26;18.70;99.90
2112;DHT22;1062;52.538;13.400;2023-04-24T06:57:52;19.80;99.90
2112;DHT22;1062;52.538;13.400;2023-04-24T07:00:17;19.70;99.90
2112;DHT22;1062;52.538;13.400;2023-04-24T07:02:43;19.40;99.90
2112;DHT22;1062;52.538;13.400;2023-04-24T07:05:08;20.20;99.90
2112;DHT22;1062;52.538;13.400;2023-04-24T07:07:34;19.70;99.90
2112;DHT22;1062;52.538;13.400;2023-04-24T07:10:04;20.60;99.90
2112;DHT22;1062;52.538;13.400;2023-04-24T07:12:29;20.20;99.90
2112;DHT22;1062;52.538;13.400;2023-04-24T07:14:55;19.10;99.90
2112;DHT22;1062;52.538;13.400;2023-04-24T07:17:20;19.00;99.90
2112;DHT22;1062;52.538;13.400;2023-04-24T07:19:46;20.00;99.90
2112;DHT22;1062;52.538;13.400;2023-04-24T07:22:11;19.90;99.90
2112;DHT22;1062;52.538;13.400;2023-04-24T07:24:43;19.90;99.90
2112;DHT22;1062;52.538;13.400;2023-04-24T07:27:08;20.30;99.90
2112;DHT22;1062;52.538;13.400;2023-04-24T07:29:34;20.30;99.90
2112;DHT22;1062;52.538;13.400;2023-04-24T07:32:01;19.90;99.90
2112;DHT22;1062;52.538;13.400;2023-04-24T07:34:26;19.70;99.90
2112;DHT22;1062;52.538;13.400;2023-04-24T07:36:52;19.20;99.90
2112;DHT22;1062;52.538;13.400;2023-04-24T07:39:18;19.50;99.90
2112;DHT22;1062;52.538;13.400;2023-04-24T07:41:44;19.90;99.90
2112;DHT22;1062;52.538;13.400;2023-04-24T07:44:09;19.30;99.90
2112;DHT22;1062;52.538;13.400;2023-04-24T07:46:35;19.70;99.90
2112;DHT22;1062;52.538;13.400;2023-04-24T07:49:01;19.70;99.90
2112;DHT22;1062;52.538;13.400;2023-04-24T07:51:27;19.70;99.90
2112;DHT22;1062;52.538;13.400;2023-04-24T07:53:53;19.50;99.90
2112;DHT22;1062;52.538;13.400;2023-04-24T07:56:20;20.10;99.90
2112;DHT22;1062;52.538;13.400;2023-04-24T07:58:46;20.00;99.90
2112;DHT22;1062;52.538;13.400;2023-04-24T08:01:11;19.60;99.90
2112;DHT22;1062;52.538;13.400;2023-04-24T08:03:37;20.20;99.90
2112;DHT22;1062;52.538;13.400;2023-04-24T08:06:04;20.60;99.90
2112;DHT22;1062;52.538;13.400;2023-04-24T08:08:29;21.50;99.90
2112;DHT22;1062;52.538;13.400;2023-04-24T08:10:55;21.70;99.90
2112;DHT22;1062;52.538;13.400;2023-04-24T08:13:21;21.80;99.90
2112;DHT22;1062;52.538;13.400;2023-04-24T08:15:46;21.60;99.90
2112;DHT22;1062;52.538;13.400;2023-04-24T08:18:12;21.40;99.90
2112;DHT22;1062;52.538;13.400;2023-04-24T08:20:39;21.20;99.90
2112;DHT22;1062;52.538;13.400;2023-04-24T08:23:04;20.90;99.90
2112;DHT22;1062;52.538;13.400;2023-04-24T08:25:30;21.70;99.90
2112;DHT22;1062;52.538;13.400;2023-04-24T08:27:56;21.20;99.90
2112;DHT22;1062;52.538;13.400;2023-04-24T08:30:21;20.90;99.90
2112;DHT22;1062;52.538;13.400;2023-04-24T08:32:47;20.80;99.90
2112;DHT22;1062;52.538;13.400;2023-04-24T08:35:13;19.90;99.90
2112;DHT22;1062;52.538;13.400;2023-04-24T08:37:39;19.70;99.90
2112;DHT22;1062;52.538;13.400;2023-04-24T08:40:10;20.20;99.90
2112;DHT22;1062;52.538;13.400;2023-04-24T08:42:37;20.50;99.90
2112;DHT22;1062;52.538;13.400;2023-04-24T08:45:03;20.00;99.90
2112;DHT22;1062;52.538;13.400;2023-04-24T08:47:29;19.30;99.90
2112;DHT22;1062;52.538;13.400;2023-04-24T08:49:56;19.40;99.90
2112;DHT22;1062;52.538;13.400;2023-04-24T08:52:22;19.20;99.90
2112;DHT22;1062;52.538;13.400;2023-04-24T08:54:48;20.20;99.90
2112;DHT22;1062;52.538;13.400;2023-04-24T08:57:14;20.40;99.90
2112;DHT22;1062;52.538;13.400;2023-04-24T08:59:40;20.00;99.90
2112;DHT22;1062;52.538;13.400;2023-04-24T09:02:10;19.60;99.90
2112;DHT22;1062;52.538;13.400;2023-04-24T09:04:36;19.30;99.90
2112;DHT22;1062;52.538;13.400;2023-04-24T09:07:03;19.00;99.90
2112;DHT22;1062;52.538;13.400;2023-04-24T09:09:31;19.00;99.90
2112;DHT22;1062;52.538;13.400;2023-04-24T09:11:58;19.40;99.90
2112;DHT22;1062;52.538;13.400;2023-04-24T09:14:24;19.90;99.90
2112;DHT22;1062;52.538;13.400;2023-04-24T09:16:50;19.40;99.90
2112;DHT22;1062;52.538;13.400;2023-04-24T09:19:16;19.10;99.90
2112;DHT22;1062;52.538;13.400;2023-04-24T09:21:45;19.00;99.90
2112;DHT22;1062;52.538;13.400;2023-04-24T09:24:21;19.00;99.90
2112;DHT22;1062;52.538;13.400;2023-04-24T09:26:56;18.40;99.90
2112;DHT22;1062;52.538;13.400;2023-04-24T09:29:27;18.40;99.90
2112;DHT22;1062;52.538;13.400;2023-04-24T09:31:53;18.30;99.90
2112;DHT22;1062;52.538;13.400;2023-04-24T09:34:23;18.20;99.90
2112;DHT22;1062;52.538;13.400;2023-04-24T09:36:49;18.20;99.90
2112;DHT22;1062;52.538;13.400;2023-04-24T09:39:16;18.40;99.90
2112;DHT22;1062;52.538;13.400;2023-04-24T09:41:55;18.80;99.90
2112;DHT22;1062;52.538;13.400;2023-04-24T09:44:26;18.50;99.90
2112;DHT22;1062;52.538;13.400;2023-04-24T09:46:57;18.40;99.90
2112;DHT22;1062;52.538;13.400;2023-04-24T09:49:25;18.40;99.90
2112;DHT22;1062;52.538;13.400;2023-04-24T09:51:51;18.40;99.90
2112;DHT22;1062;52.538;13.400;2023-04-24T09:54:19;18.50;99.90
2112;DHT22;1062;52.538;13.400;2023-04-24T09:56:50;18.50;99.90
2112;DHT22;1062;52.538;13.400;2023-04-24T09:59:18;18.80;99.90
2112;DHT22;1062;52.538;13.400;2023-04-24T10:01:44;18.60;99.90
2112;DHT22;1062;52.538;13.400;2023-04-24T10:04:20;19.10;99.90
2112;DHT22;1062;52.538;13.400;2023-04-24T10:06:47;19.10;99.90
2112;DHT22;1062;52.538;13.400;2023-04-24T10:09:18;19.30;99.90
2112;DHT22;1062;52.538;13.400;2023-04-24T10:11:46;19.30;99.90
2112;DHT22;1062;52.538;13.400;2023-04-24T10:14:25;19.50;99.90
2112;DHT22;1062;52.538;13.400;2023-04-24T10:16:54;19.70;99.90
2112;DHT22;1062;52.538;13.400;2023-04-24T10:19:20;20.10;99.90
2112;DHT22;1062;52.538;13.400;2023-04-24T10:21:46;20.40;99.90
2112;DHT22;1062;52.538;13.400;2023-04-24T10:24:17;20.30;99.90
2112;DHT22;1062;52.538;13.400;2023-04-24T10:26:44;20.10;99.90
2112;DHT22;1062;52.538;13.400;2023-04-24T10:29:14;20.00;99.90
2112;DHT22;1062;52.538;13.400;2023-04-24T10:31:41;20.40;99.90
2112;DHT22;1062;52.538;13.400;2023-04-24T10:34:07;20.20;99.90
2112;DHT22;1062;52.538;13.400;2023-04-24T10:36:35;20.50;99.90
2112;DHT22;1062;52.538;13.400;2023-04-24T10:39:03;20.20;99.90
2112;DHT22;1062;52.538;13.400;2023-04-24T10:41:31;19.80;99.90
2112;DHT22;1062;52.538;13.400;2023-04-24T10:44:11;19.60;99.90
2112;DHT22;1062;52.538;13.400;2023-04-24T10:46:39;19.10;99.90
2112;DHT22;1062;52.538;13.400;2023-04-24T10:49:05;18.70;99.90
2112;DHT22;1062;52.538;13.400;2023-04-24T10:52:03;18.20;99.90
2112;DHT22;1062;52.538;13.400;2023-04-24T10:54:36;18.20;99.90
2112;DHT22;1062;52.538;13.400;2023-04-24T11:00:35;18.30;99.90
2112;DHT22;1062;52.538;13.400;2023-04-24T11:02:38;18.20;99.90
2112;DHT22;1062;52.538;13.400;2023-04-24T11:05:06;18.30;99.90
2112;DHT22;1062;52.538;13.400;2023-04-24T11:10:38;18.50;99.90
2112;DHT22;1062;52.538;13.400;2023-04-24T11:13:04;19.20;99.90
2112;DHT22;1062;52.538;13.400;2023-04-24T11:15:29;19.40;99.90
2112;DHT22;1062;52.538;13.400;2023-04-24T11:17:56;19.30;99.90
2112;DHT22;1062;52.538;13.400;2023-04-24T11:20:23;19.40;99.90
2112;DHT22;1062;52.538;13.400;2023-04-24T11:22:53;19.60;99.90
2112;DHT22;1062;52.538;13.400;2023-04-24T11:25:21;19.50;99.90
2112;DHT22;1062;52.538;13.400;2023-04-24T11:27:47;19.40;99.90
2112;DHT22;1062;52.538;13.400;2023-04-24T11:30:19;19.80;99.90
2112;DHT22;1062;52.538;13.400;2023-04-24T11:32:49;19.30;99.90
2112;DHT22;1062;52.538;13.400;2023-04-24T11:35:17;19.30;99.90
2112;DHT22;1062;52.538;13.400;2023-04-24T11:37:46;19.40;99.90
2112;DHT22;1062;52.538;13.400;2023-04-24T11:40:13;19.00;99.90
2112;DHT22;1062;52.538;13.400;2023-04-24T11:42:43;18.60;99.90
2112;DHT22;1062;52.538;13.400;2023-04-24T11:47:36;17.90;99.90
2112;DHT22;1062;52.538;13.400;2023-04-24T11:50:03;17.60;99.90
2112;DHT22;1062;52.538;13.400;2023-04-24T11:52:30;17.80;99.90
2112;DHT22;1062;52.538;13.400;2023-04-24T11:54:56;17.70;99.90
2112;DHT22;1062;52.538;13.400;2023-04-24T11:57:24;17.90;99.90
2112;DHT22;1062;52.538;13.400;2023-04-24T11:59:52;18.10;99.90
2112;DHT22;1062;52.538;13.400;2023-04-24T12:02:24;18.00;99.90
2112;DHT22;1062;52.538;13.400;2023-04-24T12:04:54;18.00;99.90
2112;DHT22;1062;52.538;13.400;2023-04-24T12:07:20;18.10;99.90
2112;DHT22;1062;52.538;13.400;2023-04-24T12:09:47;18.20;99.90
2112;DHT22;1062;52.538;13.400;2023-04-24T12:12:15;18.30;99.90
2112;DHT22;1062;52.538;13.400;2023-04-24T12:14:47;18.60;99.90
2112;DHT22;1062;52.538;13.400;2023-04-24T12:17:14;18.60;99.90
2112;DHT22;1062;52.538;13.400;2023-04-24T12:19:45;18.50;99.90
2112;DHT22;1062;52.538;13.400;2023-04-24T12:22:11;18.30;99.90
2112;DHT22;1062;52.538;13.400;2023-04-24T12:24:59;17.90;99.90
2112;DHT22;1062;52.538;13.400;2023-04-24T12:27:26;17.80;99.90
2112;DHT22;1062;52.538;13.400;2023-04-24T12:30:04;17.70;99.90
2112;DHT22;1062;52.538;13.400;2023-04-24T12:32:30;17.80;99.90
2112;DHT22;1062;52.538;13.400;2023-04-24T12:34:55;18.00;99.90
2112;DHT22;1062;52.538;13.400;2023-04-24T12:37:25;18.00;99.90
2112;DHT22;1062;52.538;13.400;2023-04-24T12:40:08;18.00;99.90
2112;DHT22;1062;52.538;13.400;2023-04-24T12:42:35;18.50;99.90
2112;DHT22;1062;52.538;13.400;2023-04-24T12:45:04;18.60;99.90
2112;DHT22;1062;52.538;13.400;2023-04-24T12:47:31;18.60;99.90
2112;DHT22;1062;52.538;13.400;2023-04-24T12:49:57;18.50;99.90
2112;DHT22;1062;52.538;13.400;2023-04-24T12:52:23;19.00;99.90
2112;DHT22;1062;52.538;13.400;2023-04-24T12:54:50;19.50;99.90
2112;DHT22;1062;52.538;13.400;2023-04-24T12:57:16;19.70;99.90
2112;DHT22;1062;52.538;13.400;2023-04-24T12:59:42;19.70;99.90
2112;DHT22;1062;52.538;13.400;2023-04-24T13:02:08;19.40;99.60
2112;DHT22;1062;52.538;13.400;2023-04-24T13:04:35;19.30;98.80
2112;DHT22;1062;52.538;13.400;2023-04-24T13:07:01;19.20;98.30
2112;DHT22;1062;52.538;13.400;2023-04-24T13:09:26;19.10;99.90
2112;DHT22;1062;52.538;13.400;2023-04-24T13:11:52;19.60;99.90
2112;DHT22;1062;52.538;13.400;2023-04-24T13:14:17;19.60;99.90
2112;DHT22;1062;52.538;13.400;2023-04-24T13:16:43;19.40;99.90
2112;DHT22;1062;52.538;13.400;2023-04-24T13:19:09;19.10;99.90
2112;DHT22;1062;52.538;13.400;2023-04-24T13:21:34;19.10;99.90
2112;DHT22;1062;52.538;13.400;2023-04-24T13:24:00;19.90;99.90
2112;DHT22;1062;52.538;13.400;2023-04-24T13:26:25;20.60;99.90
2112;DHT22;1062;52.538;13.400;2023-04-24T13:28:51;20.10;99.90
2112;DHT22;1062;52.538;13.400;2023-04-24T13:31:16;19.80;99.90
2112;DHT22;1062;52.538;13.400;2023-04-24T13:33:42;19.70;97.70
2112;DHT22;1062;52.538;13.400;2023-04-24T13:36:08;19.30;97.00
2112;DHT22;1062;52.538;13.400;2023-04-24T13:38:34;19.00;97.10
2112;DHT22;1062;52.538;13.400;2023-04-24T13:40:59;18.70;98.60
2112;DHT22;1062;52.538;13.400;2023-04-24T13:43:25;19.20;99.40
2112;DHT22;1062;52.538;13.400;2023-04-24T13:45:51;19.10;99.20
2112;DHT22;1062;52.538;13.400;2023-04-24T13:48:16;18.80;98.60
2112;DHT22;1062;52.538;13.400;2023-04-24T13:50:43;18.40;98.70
2112;DHT22;1062;52.538;13.400;2023-04-24T13:53:09;18.30;98.10
2112;DHT22;1062;52.538;13.400;2023-04-24T13:55:35;18.30;99.30
2112;DHT22;1062;52.538;13.400;2023-04-24T13:58:01;18.30;98.70
2112;DHT22;1062;52.538;13.400;2023-04-24T14:00:28;18.60;98.30
2112;DHT22;1062;52.538;13.400;2023-04-24T14:02:53;18.60;96.30
2112;DHT22;1062;52.538;13.400;2023-04-24T14:05:19;18.60;96.10
2112;DHT22;1062;52.538;13.400;2023-04-24T14:07:46;18.70;95.70
2112;DHT22;1062;52.538;13.400;2023-04-24T14:10:11;18.30;95.30
2112;DHT22;1062;52.538;13.400;2023-04-24T14:12:37;18.30;95.30
2112;DHT22;1062;52.538;13.400;2023-04-24T14:15:03;18.30;95.40
2112;DHT22;1062;52.538;13.400;2023-04-24T14:17:30;18.60;95.60
2112;DHT22;1062;52.538;13.400;2023-04-24T14:19:56;19.00;96.10
2112;DHT22;1062;52.538;13.400;2023-04-24T14:22:22;18.80;93.90
2112;DHT22;1062;52.538;13.400;2023-04-24T14:24:48;18.60;94.80
2112;DHT22;1062;52.538;13.400;2023-04-24T14:27:13;18.30;94.80
2112;DHT22;1062;52.538;13.400;2023-04-24T14:29:39;18.20;94.80
2112;DHT22;1062;52.538;13.400;2023-04-24T14:32:04;18.10;94.80
2112;DHT22;1062;52.538;13.400;2023-04-24T14:34:30;18.10;94.90
2112;DHT22;1062;52.538;13.400;2023-04-24T14:36:56;18.20;95.20
2112;DHT22;1062;52.538;13.400;2023-04-24T14:39:21;18.50;94.70
2112;DHT22;1062;52.538;13.400;2023-04-24T14:41:47;18.60;93.80
2112;DHT22;1062;52.538;13.400;2023-04-24T14:44:13;18.60;93.40
2112;DHT22;1062;52.538;13.400;2023-04-24T14:46:38;18.50;92.90
2112;DHT22;1062;52.538;13.400;2023-04-24T14:49:04;18.20;92.40
2112;DHT22;1062;52.538;13.400;2023-04-24T14:51:30;18.20;92.30
2112;DHT22;1062;52.538;13.400;2023-04-24T14:53:56;18.10;93.20
2112;DHT22;1062;52.538;13.400;2023-04-24T14:56:22;18.30;93.60
2112;DHT22;1062;52.538;13.400;2023-04-24T14:58:48;18.10;94.10
2112;DHT22;1062;52.538;13.400;2023-04-24T15:01:14;17.80;93.90
2112;DHT22;1062;52.538;13.400;2023-04-24T15:03:39;17.60;94.30
2112;DHT22;1062;52.538;13.400;2023-04-24T15:06:05;17.60;93.90
2112;DHT22;1062;52.538;13.400;2023-04-24T15:08:31;17.60;94.40
2112;DHT22;1062;52.538;13.400;2023-04-24T15:10:56;17.70;94.80
2112;DHT22;1062;52.538;13.400;2023-04-24T15:13:22;17.70;95.00
2112;DHT22;1062;52.538;13.400;2023-04-24T15:15:47;17.60;94.60
2112;DHT22;1062;52.538;13.400;2023-04-24T15:18:13;17.70;94.60
2112;DHT22;1062;52.538;13.400;2023-04-24T15:20:39;17.80;95.00
2112;DHT22;1062;52.538;13.400;2023-04-24T15:23:05;18.30;94.90
2112;DHT22;1062;52.538;13.400;2023-04-24T15:25:31;18.50;94.60
2112;DHT22;1062;52.538;13.400;2023-04-24T15:27:57;18.50;94.80
2112;DHT22;1062;52.538;13.400;2023-04-24T15:30:24;18.20;94.50
2112;DHT22;1062;52.538;13.400;2023-04-24T15:32:49;18.20;94.50
2112;DHT22;1062;52.538;13.400;2023-04-24T15:35:15;17.90;94.00
2112;DHT22;1062;52.538;13.400;2023-04-24T15:37:41;17.70;94.80
2112;DHT22;1062;52.538;13.400;2023-04-24T15:40:08;17.30;94.60
2112;DHT22;1062;52.538;13.400;2023-04-24T15:42:34;17.00;94.80
2112;DHT22;1062;52.538;13.400;2023-04-24T15:44:59;17.00;95.70
2112;DHT22;1062;52.538;13.400;2023-04-24T15:47:25;16.90;95.70
2112;DHT22;1062;52.538;13.400;2023-04-24T15:49:52;16.70;95.40